Herbert J Plaisance — WDE6917 — position and weather

sailwx.info

Track history (hours):
 
Tides and Currents Weather Stations Pressure Air Temp Water Temp Dewpoint Dewpoint Depression Visibility Wind Speed Wind Dir Waves Ship Positions

Herbert J Plaisance

Owner: S & B Marine LLC, Harvey, LA. More information available from US FCC via Universal Licensing System and Coast Guard Vessel Documentation Center.

Last reported at 2018-May-18 11:35 UTC. Time now 2018-May-23 09:33 UTC.
Position N 29°57' W 092°41'.

Length 20 m; draft 3 m.

Type: Towing. MMSI: 367386576.

Date/timePositionNaut miles runAvg speedWind from/ knotsBaromVisibWave heightAir tempDewpointWater temp
2018-May-18 11:35N 29°57' W 092°41'1 6.2
2018-May-18 11:27N 29°57' W 092°42'3 6.0
2018-May-18 11:00N 29°58' W 092°45'3 6.0
2018-May-18 10:29N 29°58' W 092°49'2 3.2
2018-May-18 10:00N 29°58' W 092°50'2 4.0
2018-May-18 09:30N 29°57' W 092°53'2 4.2
2018-May-18 09:00N 29°56' W 092°55'3 5.1
2018-May-18 08:30N 29°56' W 092°58'3 5.3
2018-May-18 08:00N 29°56' W 093°01'3 5.3
2018-May-18 07:30N 29°56' W 093°04'3 5.2
2018-May-18 07:00N 29°56' W 093°07'2 4.3
2018-May-18 06:30N 29°56' W 093°09'3 5.4
2018-May-18 06:00N 29°58' W 093°11'0 0.5
2018-May-18 05:30N 29°58' W 093°12'2 3.8
2018-May-18 05:00N 29°60' W 093°13'2 4.7
2018-May-18 04:30N 30°02' W 093°14'2 4.7
2018-May-18 04:00N 30°04' W 093°16'1 2.1
2018-May-18 03:30N 30°05' W 093°17'0 0.0
2018-May-18 03:00N 30°05' W 093°17'1 2.4
2018-May-18 02:30N 30°05' W 093°18'1 1.6
2018-May-18 02:00N 30°06' W 093°18'0 0.1
2018-May-18 01:30N 30°06' W 093°18'0 0.0
2018-May-18 00:58N 30°06' W 093°18'0 0.0
2018-May-18 00:30N 30°06' W 093°18'0 0.0
2018-May-17 23:56N 30°06' W 093°18'0 0.1
2018-May-17 23:30N 30°06' W 093°18'2 3.5
2018-May-17 23:00N 30°05' W 093°20'3 5.3
2018-May-17 22:30N 30°04' W 093°22'2 4.9
2018-May-17 22:00N 30°04' W 093°25'3 6.0
2018-May-17 21:30N 30°04' W 093°29'3 6.0
2018-May-17 21:00N 30°04' W 093°32'3 5.7
2018-May-17 20:29N 30°04' W 093°36'4 6.2
2018-May-17 19:48N 30°03' W 093°40'2 6.1
2018-May-17 19:27N 30°03' W 093°43'2 5.3
2018-May-17 19:00N 30°01' W 093°45'3 6.5
2018-May-17 18:30N 29°59' W 093°47'3 6.4
2018-May-17 18:00N 29°58' W 093°51'3 5.0
2018-May-17 17:30N 29°56' W 093°52'0 1.0
2018-May-17 17:00N 29°56' W 093°53'0 0.1
2018-May-17 16:30N 29°56' W 093°53'0 0.0
2018-May-17 16:00N 29°56' W 093°53'0 0.0
2018-May-17 15:30N 29°56' W 093°53'0 0.0
2018-May-17 15:00N 29°56' W 093°53'0 0.0
2018-May-17 14:30N 29°56' W 093°53'2 4.2
2018-May-17 13:59N 29°58' W 093°51'0 1.0
2018-May-17 13:30N 29°58' W 093°52'0 0.0
2018-May-17 13:00N 29°58' W 093°52'0 0.0
2018-May-17 12:30N 29°58' W 093°52'0 0.1
2018-May-17 12:00N 29°58' W 093°52'0 0.0
2018-May-17 11:30N 29°58' W 093°52'0 0.0
2018-May-17 10:59N 29°58' W 093°52'0 0.1
2018-May-17 10:30N 29°58' W 093°52'0 0.8
2018-May-17 10:00N 29°58' W 093°51'2 4.6
2018-May-17 09:30N 29°56' W 093°53'0 0.0
2018-May-17 09:00N 29°56' W 093°53'0 0.0
2018-May-17 08:30N 29°56' W 093°53'0 0.0
2018-May-17 08:00N 29°56' W 093°53'0 0.0
2018-May-17 07:30N 29°56' W 093°53'0 0.0
2018-May-17 07:01N 29°56' W 093°53'0 0.0
2018-May-17 06:30N 29°56' W 093°53'0 0.0
2018-May-17 06:01N 29°56' W 093°53'0 0.0
2018-May-17 05:30N 29°56' W 093°53'0 0.0
2018-May-17 05:00N 29°56' W 093°53'0 0.0
2018-May-17 04:30N 29°56' W 093°53'0 0.0
2018-May-17 04:00N 29°56' W 093°53'0 0.0
2018-May-17 03:30N 29°56' W 093°53'0 0.0
2018-May-17 03:00N 29°56' W 093°53'0 0.0
2018-May-17 02:30N 29°56' W 093°53'0 0.0
2018-May-17 02:00N 29°56' W 093°53'0 0.0
2018-May-17 01:30N 29°56' W 093°53'0 0.0
2018-May-17 01:01N 29°56' W 093°53'0 0.0
2018-May-17 00:31N 29°56' W 093°53'0 0.0
2018-May-17 00:00N 29°56' W 093°53'0 0.0
2018-May-16 23:30N 29°56' W 093°53'0 0.0
2018-May-16 23:00N 29°56' W 093°53'0 0.0
2018-May-16 22:30N 29°56' W 093°53'0 0.0
2018-May-16 22:00N 29°56' W 093°53'0 0.0
2018-May-16 21:31N 29°56' W 093°53'0 0.0
2018-May-16 21:01N 29°56' W 093°53'0 0.0
2018-May-16 20:30N 29°56' W 093°53'0 0.0
2018-May-16 20:01N 29°56' W 093°53'0 0.0
2018-May-16 19:31N 29°56' W 093°53'0 0.0
2018-May-16 19:01N 29°56' W 093°53'0 0.0
2018-May-16 18:31N 29°56' W 093°53'0 0.0
2018-May-16 18:00N 29°56' W 093°53'0 0.0
2018-May-16 17:31N 29°56' W 093°53'0 0.0
2018-May-16 17:00N 29°56' W 093°53'0 0.0
2018-May-16 16:31N 29°56' W 093°53'0 0.0
2018-May-16 16:00N 29°56' W 093°53'0 0.0
2018-May-16 15:30N 29°56' W 093°53'0 0.0
2018-May-16 15:00N 29°56' W 093°53'0 0.0
2018-May-16 14:30N 29°56' W 093°53'0 0.0
2018-May-16 14:00N 29°56' W 093°53'0 0.0
2018-May-16 13:31N 29°56' W 093°53'0 0.0
2018-May-16 13:00N 29°56' W 093°53'0 0.0
2018-May-16 12:30N 29°56' W 093°53'0 0.0
2018-May-16 12:01N 29°56' W 093°53'0 0.0
2018-May-16 11:30N 29°56' W 093°53'0 0.0
2018-May-16 11:00N 29°56' W 093°53'0 0.0
2018-May-16 10:30N 29°56' W 093°53'0 0.0
2018-May-16 10:00N 29°56' W 093°53'0 0.0
2018-May-16 09:30N 29°56' W 093°53'0 0.0
2018-May-16 09:01N 29°56' W 093°53'0 0.0
2018-May-16 08:30N 29°56' W 093°53'0 0.0
2018-May-16 08:00N 29°56' W 093°53'0 0.0
2018-May-16 07:30N 29°56' W 093°53'0 0.0
2018-May-16 07:00N 29°56' W 093°53'0 0.0
2018-May-16 06:30N 29°56' W 093°53'0 0.0
2018-May-16 06:00N 29°56' W 093°53'0 0.0
2018-May-16 05:30N 29°56' W 093°53'2 4.6
2018-May-16 05:00N 29°58' W 093°51'3 6.0
2018-May-16 04:30N 29°59' W 093°48'5 7.1
2018-May-16 03:48N 30°03' W 093°44'2 6.6
2018-May-16 03:28N 30°04' W 093°42'3 6.8
2018-May-16 03:00N 30°04' W 093°38'3 6.1
2018-May-16 02:30N 30°04' W 093°35'3 5.8
2018-May-16 02:00N 30°04' W 093°31'3 5.6
2018-May-16 01:30N 30°04' W 093°28'3 5.5
2018-May-16 00:58N 30°04' W 093°25'3 5.6
2018-May-16 00:30N 30°04' W 093°22'3 5.6
2018-May-16 00:01N 30°06' W 093°19'2 4.4
2018-May-15 23:30N 30°05' W 093°17'0 0.8
2018-May-15 23:00N 30°05' W 093°17'1 1.2
2018-May-15 22:30N 30°05' W 093°18'2 3.3
2018-May-15 22:01N 30°05' W 093°20'2 4.2
2018-May-15 21:30N 30°04' W 093°21'2 4.9
2018-May-15 21:00N 30°04' W 093°24'3 5.3
2018-May-15 20:30N 30°04' W 093°27'2 4.1
2018-May-15 20:00N 30°04' W 093°30'3 5.4
2018-May-15 19:30N 30°04' W 093°33'3 5.5
2018-May-15 19:00N 30°04' W 093°36'3 5.4
2018-May-15 18:28N 30°03' W 093°39'2 5.3
2018-May-15 18:00N 30°03' W 093°42'2 4.7
2018-May-15 17:30N 30°02' W 093°44'2 4.9
2018-May-15 17:01N 30°00' W 093°46'3 5.4
2018-May-15 16:30N 29°59' W 093°49'3 5.6
2018-May-15 16:00N 29°57' W 093°52'2 4.0
2018-May-15 15:30N 29°56' W 093°53'0 0.0
2018-May-15 15:00N 29°56' W 093°53'0 0.1
2018-May-15 14:30N 29°56' W 093°53'0 0.0
2018-May-15 14:00N 29°56' W 093°53'0 0.2
2018-May-15 13:30N 29°56' W 093°53'0 0.0
2018-May-15 13:00N 29°56' W 093°53'0 0.1
2018-May-15 12:30N 29°56' W 093°53'0 0.0
2018-May-15 12:00N 29°56' W 093°53'0 0.0
2018-May-15 11:30N 29°56' W 093°53'0 0.0
2018-May-15 11:01N 29°56' W 093°53'0 0.0
2018-May-15 10:30N 29°56' W 093°53'0 0.0
2018-May-15 10:00N 29°56' W 093°53'0 0.0
2018-May-15 09:30N 29°56' W 093°53'0 0.0
2018-May-15 09:00N 29°56' W 093°53'0 0.0
2018-May-15 08:30N 29°56' W 093°53'0 0.0
2018-May-15 08:00N 29°56' W 093°53'0 0.0
2018-May-15 07:30N 29°56' W 093°53'0 0.0
2018-May-15 07:01N 29°56' W 093°53'0 0.0
2018-May-15 06:30N 29°56' W 093°53'0 0.0
2018-May-15 06:01N 29°56' W 093°53'0 0.0
2018-May-15 05:30N 29°56' W 093°53'0 0.0
2018-May-15 05:00N 29°56' W 093°53'0 0.0
2018-May-15 04:30N 29°56' W 093°53'0 0.0
2018-May-15 04:01N 29°56' W 093°53'0 0.0
2018-May-15 03:31N 29°56' W 093°53'0 0.0
2018-May-15 03:00N 29°56' W 093°53'0 0.0
2018-May-15 02:30N 29°56' W 093°53'0 0.0
2018-May-15 02:00N 29°56' W 093°53'0 0.0
2018-May-15 01:31N 29°56' W 093°53'0 0.0
2018-May-15 01:00N 29°56' W 093°53'0 0.0
2018-May-15 00:30N 29°56' W 093°53'0 0.0
2018-May-15 00:00N 29°56' W 093°53'0 0.0
2018-May-14 23:30N 29°56' W 093°53'0 0.0
2018-May-14 23:01N 29°56' W 093°53'0 0.0
2018-May-14 22:30N 29°56' W 093°53'0 0.0
2018-May-14 22:01N 29°56' W 093°53'0 0.0
2018-May-14 21:31N 29°56' W 093°53'0 0.0
2018-May-14 21:01N 29°56' W 093°53'0 0.0
2018-May-14 20:31N 29°56' W 093°53'0 0.0
2018-May-14 20:01N 29°56' W 093°53'0 0.0
2018-May-14 19:30N 29°56' W 093°53'0 0.0
2018-May-14 19:00N 29°56' W 093°53'0 0.0
2018-May-14 18:30N 29°56' W 093°53'3 5.8
2018-May-14 18:01N 29°53' W 093°55'0 0.2
2018-May-14 17:30N 29°53' W 093°55'3 5.7
2018-May-14 17:01N 29°56' W 093°53'0 0.0
2018-May-14 16:30N 29°56' W 093°53'0 0.0
2018-May-14 16:01N 29°56' W 093°53'0 0.0
2018-May-14 15:30N 29°56' W 093°53'0 0.0
2018-May-14 15:00N 29°56' W 093°53'0 0.0
2018-May-14 14:30N 29°56' W 093°53'0 0.0
2018-May-14 14:00N 29°56' W 093°53'0 0.0
2018-May-14 13:30N 29°56' W 093°53'0 0.0
2018-May-14 13:01N 29°56' W 093°53'2 3.7
2018-May-14 12:30N 29°54' W 093°54'1 1.3
2018-May-14 12:00N 29°54' W 093°54'2 4.7
2018-May-14 11:30N 29°55' W 093°53'0 0.4
2018-May-14 11:01N 29°56' W 093°53'0 0.0
2018-May-14 10:30N 29°56' W 093°53'0 0.0
2018-May-14 10:00N 29°56' W 093°53'0 0.0
2018-May-14 09:30N 29°56' W 093°53'0 0.0
2018-May-14 09:00N 29°56' W 093°53'0 0.0
2018-May-14 08:30N 29°56' W 093°53'0 0.0
2018-May-14 08:00N 29°56' W 093°53'0 0.0
2018-May-14 07:30N 29°56' W 093°53'0 0.0
2018-May-14 07:00N 29°56' W 093°53'0 0.0
2018-May-14 06:30N 29°56' W 093°53'0 0.0
2018-May-14 06:01N 29°56' W 093°53'0 0.0
2018-May-14 05:30N 29°56' W 093°53'0 0.0
2018-May-14 05:01N 29°56' W 093°53'0 0.0
2018-May-14 04:31N 29°56' W 093°53'0 0.0
2018-May-14 04:01N 29°56' W 093°53'0 0.0
2018-May-14 03:30N 29°56' W 093°53'0 0.0
2018-May-14 03:01N 29°56' W 093°53'0 0.0
2018-May-14 02:30N 29°56' W 093°53'0 0.0
2018-May-14 02:01N 29°56' W 093°53'0 0.0
2018-May-14 01:31N 29°56' W 093°53'0 0.0
2018-May-14 01:00N 29°56' W 093°53'0 0.0
2018-May-14 00:31N 29°56' W 093°53'0 0.0
2018-May-14 00:01N 29°56' W 093°53'0 0.0
2018-May-13 23:31N 29°56' W 093°53'0 0.0
2018-May-13 23:01N 29°56' W 093°53'0 0.0
2018-May-13 22:30N 29°56' W 093°53'0 0.0
2018-May-13 22:00N 29°56' W 093°53'0 0.0
2018-May-13 21:30N 29°56' W 093°53'0 0.0
2018-May-13 21:01N 29°56' W 093°53'0 0.0
2018-May-13 20:31N 29°56' W 093°53'0 0.0
2018-May-13 20:01N 29°56' W 093°53'0 0.0
2018-May-13 19:30N 29°56' W 093°53'0 0.0
2018-May-13 19:01N 29°56' W 093°53'0 0.0
2018-May-13 18:30N 29°56' W 093°53'0 0.0
2018-May-13 18:01N 29°56' W 093°53'0 0.0
2018-May-13 17:31N 29°56' W 093°53'0 0.0
2018-May-13 17:00N 29°56' W 093°53'0 0.0
2018-May-13 16:31N 29°56' W 093°53'0 0.0
2018-May-13 16:01N 29°56' W 093°53'0 0.0
2018-May-13 15:28N 29°56' W 093°53'0 0.0
2018-May-13 15:01N 29°56' W 093°53'0 0.0
2018-May-13 14:30N 29°56' W 093°53'0 0.0
2018-May-13 14:00N 29°56' W 093°53'0 0.0
2018-May-13 13:31N 29°56' W 093°53'0 0.0
2018-May-13 13:00N 29°56' W 093°53'0 0.0
2018-May-13 12:31N 29°56' W 093°53'0 0.0
2018-May-13 12:00N 29°56' W 093°53'0 0.0
2018-May-13 11:31N 29°56' W 093°53'0 0.0
2018-May-13 11:00N 29°56' W 093°53'0 0.0
2018-May-13 10:30N 29°56' W 093°53'0 0.0
2018-May-13 10:01N 29°56' W 093°53'0 0.0
2018-May-13 09:31N 29°56' W 093°53'0 0.0
2018-May-13 09:01N 29°56' W 093°53'0 0.0
2018-May-13 08:31N 29°56' W 093°53'0 0.0
2018-May-13 08:00N 29°56' W 093°53'0 0.0
2018-May-13 07:30N 29°56' W 093°53'0 0.0
2018-May-13 07:00N 29°56' W 093°53'0 0.0
2018-May-13 06:30N 29°56' W 093°53'0 0.0
2018-May-13 06:00N 29°56' W 093°53'0 0.0
2018-May-13 05:30N 29°56' W 093°53'0 0.0
2018-May-13 05:00N 29°56' W 093°53'0 0.0
2018-May-13 04:30N 29°56' W 093°53'0 0.0
2018-May-13 04:00N 29°56' W 093°53'0 0.0
2018-May-13 03:30N 29°56' W 093°53'0 0.0
2018-May-13 03:00N 29°56' W 093°53'0 0.0
2018-May-13 02:30N 29°56' W 093°53'0 0.0
2018-May-13 02:00N 29°56' W 093°53'0 0.0
2018-May-13 01:30N 29°56' W 093°53'0 0.0
2018-May-13 01:00N 29°56' W 093°53'0 0.0
2018-May-13 00:30N 29°56' W 093°53'0 0.0
2018-May-13 00:00N 29°56' W 093°53'0 0.0
2018-May-12 23:30N 29°56' W 093°53'0 0.0
2018-May-12 23:00N 29°56' W 093°53'0 0.0
2018-May-12 22:30N 29°56' W 093°53'0 0.0
2018-May-12 22:00N 29°56' W 093°53'0 0.0
2018-May-12 21:30N 29°56' W 093°53'0 0.0
2018-May-12 21:00N 29°56' W 093°53'0 0.0
2018-May-12 20:30N 29°56' W 093°53'0 0.0
2018-May-12 20:00N 29°56' W 093°53'0 0.0
2018-May-12 19:30N 29°56' W 093°53'0 0.0
2018-May-12 19:00N 29°56' W 093°53'0 0.0
2018-May-12 18:30N 29°56' W 093°53'0 0.0
2018-May-12 18:00N 29°56' W 093°53'1 1.9
2018-May-12 17:30N 29°55' W 093°53'2 4.2
2018-May-12 17:00N 29°53' W 093°55'2 4.1
2018-May-12 16:30N 29°55' W 093°53'1 2.0
2018-May-12 16:00N 29°56' W 093°53'0 0.0
2018-May-12 15:30N 29°56' W 093°53'0 0.0
2018-May-12 15:00N 29°56' W 093°53'0 0.0
2018-May-12 14:30N 29°56' W 093°53'0 0.0
2018-May-12 14:00N 29°56' W 093°53'0 0.0
2018-May-12 13:30N 29°56' W 093°53'0 0.0
2018-May-12 13:00N 29°56' W 093°53'0 0.0
2018-May-12 12:30N 29°56' W 093°53'0 0.0
2018-May-12 12:00N 29°56' W 093°53'0 0.0
2018-May-12 11:30N 29°56' W 093°53'0 0.0
2018-May-12 11:00N 29°56' W 093°53'0 0.0
2018-May-12 10:30N 29°56' W 093°53'0 0.0
2018-May-12 10:00N 29°56' W 093°53'0 0.0
2018-May-12 09:30N 29°56' W 093°53'0 0.0
2018-May-12 09:00N 29°56' W 093°53'0 0.0
2018-May-12 08:30N 29°56' W 093°53'0 0.0
2018-May-12 08:00N 29°56' W 093°53'0 0.0
2018-May-12 07:30N 29°56' W 093°53'0 0.0
2018-May-12 07:00N 29°56' W 093°53'0 0.0
2018-May-12 06:30N 29°56' W 093°53'0 0.1
2018-May-12 06:00N 29°56' W 093°53'0 0.0
2018-May-12 05:30N 29°56' W 093°53'0 0.0
2018-May-12 05:00N 29°56' W 093°53'0 0.0
2018-May-12 04:30N 29°56' W 093°53'0 0.0
2018-May-12 04:00N 29°56' W 093°53'0 0.0
2018-May-12 03:30N 29°56' W 093°53'0 0.0
2018-May-12 03:00N 29°56' W 093°53'0 0.0
2018-May-12 02:30N 29°56' W 093°53'0 0.0
2018-May-12 02:00N 29°56' W 093°53'0 0.0
2018-May-12 01:30N 29°56' W 093°53'0 0.0
2018-May-12 01:00N 29°56' W 093°53'0 0.0
2018-May-12 00:30N 29°56' W 093°53'0 0.0
2018-May-12 00:00N 29°56' W 093°53'0 0.0
2018-May-11 23:30N 29°56' W 093°53'0 0.0
2018-May-11 23:00N 29°56' W 093°53'0 0.0
2018-May-11 22:30N 29°56' W 093°53'2 4.2
2018-May-11 22:00N 29°54' W 093°54'1 2.0
2018-May-11 21:30N 29°53' W 093°55'0 0.0
2018-May-11 21:00N 29°53' W 093°55'0 0.0
2018-May-11 20:30N 29°53' W 093°55'0 0.0
2018-May-11 20:00N 29°53' W 093°55'0 0.0
2018-May-11 19:30N 29°53' W 093°55'2 4.0
2018-May-11 19:00N 29°55' W 093°53'1 2.1
2018-May-11 18:30N 29°56' W 093°53'0 0.0
2018-May-11 18:00N 29°56' W 093°53'0 0.0
2018-May-11 17:30N 29°56' W 093°53'0 0.0
2018-May-11 17:00N 29°56' W 093°53'0 0.0
2018-May-11 16:30N 29°56' W 093°53'0 0.2
2018-May-11 16:00N 29°56' W 093°53'0 0.2
2018-May-11 15:30N 29°56' W 093°53'0 0.0
2018-May-11 15:00N 29°56' W 093°53'0 0.0
2018-May-11 14:30N 29°56' W 093°53'0 0.0
2018-May-11 14:00N 29°56' W 093°53'0 0.0
2018-May-11 13:30N 29°56' W 093°53'0 0.0
2018-May-11 13:00N 29°56' W 093°53'0 0.0
2018-May-11 12:30N 29°56' W 093°53'0 0.0
2018-May-11 12:00N 29°56' W 093°53'0 0.0
2018-May-11 11:30N 29°56' W 093°53'0 0.0
2018-May-11 11:00N 29°56' W 093°53'0 0.0
2018-May-11 10:30N 29°56' W 093°53'0 0.0
2018-May-11 10:00N 29°56' W 093°53'0 0.0
2018-May-11 09:30N 29°56' W 093°53'0 0.0
2018-May-11 09:00N 29°56' W 093°53'0 0.0
2018-May-11 08:30N 29°56' W 093°53'0 0.0
2018-May-11 08:00N 29°56' W 093°53'0 0.0
2018-May-11 07:30N 29°56' W 093°53'0 0.0
2018-May-11 07:00N 29°56' W 093°53'0 0.0
2018-May-11 06:30N 29°56' W 093°53'0 0.0
2018-May-11 06:00N 29°56' W 093°53'0 0.0
2018-May-11 05:30N 29°56' W 093°53'0 0.0
2018-May-11 05:00N 29°56' W 093°53'0 0.0
2018-May-11 04:30N 29°56' W 093°53'0 0.0
2018-May-11 04:00N 29°56' W 093°53'0 0.0
2018-May-11 03:30N 29°56' W 093°53'0 0.0
2018-May-11 03:00N 29°56' W 093°53'0 0.0
2018-May-11 02:30N 29°56' W 093°53'0 0.0
2018-May-11 02:00N 29°56' W 093°53'0 0.0
2018-May-11 01:30N 29°56' W 093°53'0 0.0
2018-May-11 01:00N 29°56' W 093°53'0 0.0
2018-May-11 00:30N 29°56' W 093°53'0 0.0
2018-May-11 00:00N 29°56' W 093°53'0 0.0
2018-May-10 23:30N 29°56' W 093°53'0 0.0
2018-May-10 23:00N 29°56' W 093°53'0 0.0
2018-May-10 22:30N 29°56' W 093°53'0 0.0
2018-May-10 22:00N 29°56' W 093°53'0 0.0
2018-May-10 21:30N 29°56' W 093°53'0 0.0
2018-May-10 21:00N 29°56' W 093°53'0 0.0
2018-May-10 20:30N 29°56' W 093°53'0 0.0
2018-May-10 20:00N 29°56' W 093°53'0 0.0
2018-May-10 19:30N 29°56' W 093°53'0 0.0
2018-May-10 19:00N 29°56' W 093°53'0 0.0
2018-May-10 18:30N 29°56' W 093°53'2 3.0
2018-May-10 18:00N 29°54' W 093°54'2 3.1
2018-May-10 17:30N 29°53' W 093°55'0 0.0
2018-May-10 17:00N 29°53' W 093°55'0 0.2
2018-May-10 16:30N 29°53' W 093°55'3 6.1
2018-May-10 16:00N 29°56' W 093°53'0 0.1
2018-May-10 15:30N 29°56' W 093°53'0 0.0
2018-May-10 15:00N 29°56' W 093°53'0 0.0
2018-May-10 14:30N 29°56' W 093°53'0 0.0
2018-May-10 14:00N 29°56' W 093°53'0 0.0
2018-May-10 13:30N 29°56' W 093°53'0 0.0
2018-May-10 13:00N 29°56' W 093°53'0 0.0
2018-May-10 12:30N 29°56' W 093°53'0 0.0
2018-May-10 12:00N 29°56' W 093°53'0 0.0
2018-May-10 11:30N 29°56' W 093°53'0 0.0
2018-May-10 11:00N 29°56' W 093°53'0 0.0
2018-May-10 10:30N 29°56' W 093°53'0 0.0
2018-May-10 10:00N 29°56' W 093°53'0 0.0
2018-May-10 09:30N 29°56' W 093°53'0 0.0
2018-May-10 09:00N 29°56' W 093°53'0 0.0
2018-May-10 08:30N 29°56' W 093°53'0 0.0
2018-May-10 08:01N 29°56' W 093°53'0 0.0
2018-May-10 07:30N 29°56' W 093°53'0 0.0
2018-May-10 07:01N 29°56' W 093°53'0 0.0
2018-May-10 06:30N 29°56' W 093°53'0 0.0
2018-May-10 06:00N 29°56' W 093°53'0 0.0
2018-May-10 05:30N 29°56' W 093°53'0 0.0
2018-May-10 05:01N 29°56' W 093°53'0 0.0
2018-May-10 04:31N 29°56' W 093°53'0 0.0
2018-May-10 04:00N 29°56' W 093°53'0 0.0
2018-May-10 03:31N 29°56' W 093°53'0 0.0
2018-May-10 02:59N 29°56' W 093°53'0 0.0
2018-May-10 02:31N 29°56' W 093°53'0 0.0
2018-May-10 02:00N 29°56' W 093°53'0 0.0
2018-May-10 01:30N 29°56' W 093°53'0 0.0
2018-May-10 01:00N 29°56' W 093°53'0 0.0
2018-May-10 00:31N 29°56' W 093°53'0 0.0
2018-May-10 00:00N 29°56' W 093°53'0 0.0
2018-May-09 23:30N 29°56' W 093°53'0 0.0
2018-May-09 23:00N 29°56' W 093°53'0 0.0
2018-May-09 22:30N 29°56' W 093°53'0 0.0
2018-May-09 22:01N 29°56' W 093°53'0 0.0
2018-May-09 21:30N 29°56' W 093°53'0 0.0
2018-May-09 21:00N 29°56' W 093°53'0 0.0
2018-May-09 20:30N 29°56' W 093°53'0 0.0
2018-May-09 20:00N 29°56' W 093°53'0 0.0
2018-May-09 19:31N 29°56' W 093°53'0 0.0
2018-May-09 19:00N 29°56' W 093°53'0 0.0
2018-May-09 18:30N 29°56' W 093°53'0 0.0
2018-May-09 18:00N 29°56' W 093°53'0 0.0
2018-May-09 17:30N 29°56' W 093°53'0 0.0
2018-May-09 17:01N 29°56' W 093°53'1 2.4
2018-May-09 16:30N 29°57' W 093°52'3 5.1
2018-May-09 16:00N 29°59' W 093°50'3 5.5
2018-May-09 15:30N 29°60' W 093°47'3 5.5
2018-May-09 15:00N 30°01' W 093°44'3 5.1
2018-May-09 14:30N 30°03' W 093°43'2 4.9
2018-May-09 14:01N 30°04' W 093°40'2 4.7
2018-May-09 13:30N 30°04' W 093°37'2 4.1
2018-May-09 13:01N 30°04' W 093°35'2 3.7
2018-May-09 12:30N 30°04' W 093°33'2 3.7
2018-May-09 12:00N 30°04' W 093°30'2 3.6
2018-May-09 11:30N 30°04' W 093°28'2 3.7
2018-May-09 11:01N 30°04' W 093°26'2 3.7
2018-May-09 10:30N 30°04' W 093°24'2 3.7
2018-May-09 10:00N 30°04' W 093°22'1 2.7
2018-May-09 09:31N 30°04' W 093°21'2 3.1
2018-May-09 09:00N 30°06' W 093°19'1 2.2
2018-May-09 08:31N 30°06' W 093°18'0 0.1
2018-May-09 08:01N 30°06' W 093°18'0 0.4
2018-May-09 07:31N 30°06' W 093°18'1 2.6
2018-May-09 07:00N 30°05' W 093°17'1 2.9
2018-May-09 06:31N 30°04' W 093°16'0 0.1
2018-May-09 06:01N 30°04' W 093°16'0 0.0
2018-May-09 05:30N 30°04' W 093°16'0 0.0
2018-May-09 05:01N 30°04' W 093°16'0 0.0
2018-May-09 04:30N 30°04' W 093°16'0 0.0
2018-May-09 04:01N 30°04' W 093°16'0 0.0
2018-May-09 03:30N 30°04' W 093°16'0 0.0
2018-May-09 03:00N 30°04' W 093°16'0 0.0
2018-May-09 02:29N 30°04' W 093°16'0 0.0
2018-May-09 02:01N 30°04' W 093°16'0 0.0
2018-May-09 01:31N 30°04' W 093°16'0 0.0
2018-May-09 01:00N 30°04' W 093°16'0 0.0
2018-May-09 00:30N 30°04' W 093°16'1 2.3
2018-May-09 00:01N 30°03' W 093°16'2 3.5
2018-May-08 23:31N 30°01' W 093°14'2 3.4
2018-May-08 23:00N 29°60' W 093°13'1 1.3
2018-May-08 22:27N 29°59' W 093°13'0 0.0
2018-May-08 22:00N 29°59' W 093°13'0 0.0
2018-May-08 21:31N 29°59' W 093°13'0 0.2
2018-May-08 21:00N 29°59' W 093°13'1 2.6
2018-May-08 20:30N 29°58' W 093°12'2 3.9
2018-May-08 20:01N 29°57' W 093°10'20 3.6
2018-May-08 14:32N 29°58' W 092°47'0 4.6
2018-May-08 14:31N 29°58' W 092°47'2 3.7
2018-May-08 14:00N 29°58' W 092°45'2 3.8
2018-May-08 13:31N 29°57' W 092°43'2 4.2
2018-May-08 12:59N 29°56' W 092°41'2 3.1
2018-May-08 12:30N 29°56' W 092°39'2 4.2
2018-May-08 12:00N 29°55' W 092°37'  
Track history (hours):
 
Tides and Currents Weather Stations Pressure Air Temp Water Temp Dewpoint Dewpoint Depression Visibility Wind Speed Wind Dir Waves Ship Positions

Herbert J Plaisance

Owner: S & B Marine LLC, Harvey, LA. More information available from US FCC via Universal Licensing System and Coast Guard Vessel Documentation Center.

Last reported at 2018-May-18 11:35 UTC. Time now 2018-May-23 09:33 UTC.
Position N 29°57' W 092°41'.

Length 20 m; draft 3 m.

Type: Towing. MMSI: 367386576.

Date/timePositionNaut miles runAvg speedWind from/ knotsBaromVisibWave heightAir tempDewpointWater temp
2018-May-18 11:35N 29°57' W 092°41'1 6.2
2018-May-18 11:27N 29°57' W 092°42'3 6.0
2018-May-18 11:00N 29°58' W 092°45'3 6.0
2018-May-18 10:29N 29°58' W 092°49'2 3.2
2018-May-18 10:00N 29°58' W 092°50'2 4.0
2018-May-18 09:30N 29°57' W 092°53'2 4.2
2018-May-18 09:00N 29°56' W 092°55'3 5.1
2018-May-18 08:30N 29°56' W 092°58'3 5.3
2018-May-18 08:00N 29°56' W 093°01'3 5.3
2018-May-18 07:30N 29°56' W 093°04'3 5.2
2018-May-18 07:00N 29°56' W 093°07'2 4.3
2018-May-18 06:30N 29°56' W 093°09'3 5.4
2018-May-18 06:00N 29°58' W 093°11'0 0.5
2018-May-18 05:30N 29°58' W 093°12'2 3.8
2018-May-18 05:00N 29°60' W 093°13'2 4.7
2018-May-18 04:30N 30°02' W 093°14'2 4.7
2018-May-18 04:00N 30°04' W 093°16'1 2.1
2018-May-18 03:30N 30°05' W 093°17'0 0.0
2018-May-18 03:00N 30°05' W 093°17'1 2.4
2018-May-18 02:30N 30°05' W 093°18'1 1.6
2018-May-18 02:00N 30°06' W 093°18'0 0.1
2018-May-18 01:30N 30°06' W 093°18'0 0.0
2018-May-18 00:58N 30°06' W 093°18'0 0.0
2018-May-18 00:30N 30°06' W 093°18'0 0.0
2018-May-17 23:56N 30°06' W 093°18'0 0.1
2018-May-17 23:30N 30°06' W 093°18'2 3.5
2018-May-17 23:00N 30°05' W 093°20'3 5.3
2018-May-17 22:30N 30°04' W 093°22'2 4.9
2018-May-17 22:00N 30°04' W 093°25'3 6.0
2018-May-17 21:30N 30°04' W 093°29'3 6.0
2018-May-17 21:00N 30°04' W 093°32'3 5.7
2018-May-17 20:29N 30°04' W 093°36'4 6.2
2018-May-17 19:48N 30°03' W 093°40'2 6.1
2018-May-17 19:27N 30°03' W 093°43'2 5.3
2018-May-17 19:00N 30°01' W 093°45'3 6.5
2018-May-17 18:30N 29°59' W 093°47'3 6.4
2018-May-17 18:00N 29°58' W 093°51'3 5.0
2018-May-17 17:30N 29°56' W 093°52'0 1.0
2018-May-17 17:00N 29°56' W 093°53'0 0.1
2018-May-17 16:30N 29°56' W 093°53'0 0.0
2018-May-17 16:00N 29°56' W 093°53'0 0.0
2018-May-17 15:30N 29°56' W 093°53'0 0.0
2018-May-17 15:00N 29°56' W 093°53'0 0.0
2018-May-17 14:30N 29°56' W 093°53'2 4.2
2018-May-17 13:59N 29°58' W 093°51'0 1.0
2018-May-17 13:30N 29°58' W 093°52'0 0.0
2018-May-17 13:00N 29°58' W 093°52'0 0.0
2018-May-17 12:30N 29°58' W 093°52'0 0.1
2018-May-17 12:00N 29°58' W 093°52'0 0.0
2018-May-17 11:30N 29°58' W 093°52'0 0.0
2018-May-17 10:59N 29°58' W 093°52'0 0.1
2018-May-17 10:30N 29°58' W 093°52'0 0.8
2018-May-17 10:00N 29°58' W 093°51'2 4.6
2018-May-17 09:30N 29°56' W 093°53'0 0.0
2018-May-17 09:00N 29°56' W 093°53'0 0.0
2018-May-17 08:30N 29°56' W 093°53'0 0.0
2018-May-17 08:00N 29°56' W 093°53'0 0.0
2018-May-17 07:30N 29°56' W 093°53'0 0.0
2018-May-17 07:01N 29°56' W 093°53'0 0.0
2018-May-17 06:30N 29°56' W 093°53'0 0.0
2018-May-17 06:01N 29°56' W 093°53'0 0.0
2018-May-17 05:30N 29°56' W 093°53'0 0.0
2018-May-17 05:00N 29°56' W 093°53'0 0.0
2018-May-17 04:30N 29°56' W 093°53'0 0.0
2018-May-17 04:00N 29°56' W 093°53'0 0.0
2018-May-17 03:30N 29°56' W 093°53'0 0.0
2018-May-17 03:00N 29°56' W 093°53'0 0.0
2018-May-17 02:30N 29°56' W 093°53'0 0.0
2018-May-17 02:00N 29°56' W 093°53'0 0.0
2018-May-17 01:30N 29°56' W 093°53'0 0.0
2018-May-17 01:01N 29°56' W 093°53'0 0.0
2018-May-17 00:31N 29°56' W 093°53'0 0.0
2018-May-17 00:00N 29°56' W 093°53'0 0.0
2018-May-16 23:30N 29°56' W 093°53'0 0.0
2018-May-16 23:00N 29°56' W 093°53'0 0.0
2018-May-16 22:30N 29°56' W 093°53'0 0.0
2018-May-16 22:00N 29°56' W 093°53'0 0.0
2018-May-16 21:31N 29°56' W 093°53'0 0.0
2018-May-16 21:01N 29°56' W 093°53'0 0.0
2018-May-16 20:30N 29°56' W 093°53'0 0.0
2018-May-16 20:01N 29°56' W 093°53'0 0.0
2018-May-16 19:31N 29°56' W 093°53'0 0.0
2018-May-16 19:01N 29°56' W 093°53'0 0.0
2018-May-16 18:31N 29°56' W 093°53'0 0.0
2018-May-16 18:00N 29°56' W 093°53'0 0.0
2018-May-16 17:31N 29°56' W 093°53'0 0.0
2018-May-16 17:00N 29°56' W 093°53'0 0.0
2018-May-16 16:31N 29°56' W 093°53'0 0.0
2018-May-16 16:00N 29°56' W 093°53'0 0.0
2018-May-16 15:30N 29°56' W 093°53'0 0.0
2018-May-16 15:00N 29°56' W 093°53'0 0.0
2018-May-16 14:30N 29°56' W 093°53'0 0.0
2018-May-16 14:00N 29°56' W 093°53'0 0.0
2018-May-16 13:31N 29°56' W 093°53'0 0.0
2018-May-16 13:00N 29°56' W 093°53'0 0.0
2018-May-16 12:30N 29°56' W 093°53'0 0.0
2018-May-16 12:01N 29°56' W 093°53'0 0.0
2018-May-16 11:30N 29°56' W 093°53'0 0.0
2018-May-16 11:00N 29°56' W 093°53'0 0.0
2018-May-16 10:30N 29°56' W 093°53'0 0.0
2018-May-16 10:00N 29°56' W 093°53'0 0.0
2018-May-16 09:30N 29°56' W 093°53'0 0.0
2018-May-16 09:01N 29°56' W 093°53'0 0.0
2018-May-16 08:30N 29°56' W 093°53'0 0.0
2018-May-16 08:00N 29°56' W 093°53'0 0.0
2018-May-16 07:30N 29°56' W 093°53'0 0.0
2018-May-16 07:00N 29°56' W 093°53'0 0.0
2018-May-16 06:30N 29°56' W 093°53'0 0.0
2018-May-16 06:00N 29°56' W 093°53'0 0.0
2018-May-16 05:30N 29°56' W 093°53'2 4.6
2018-May-16 05:00N 29°58' W 093°51'3 6.0
2018-May-16 04:30N 29°59' W 093°48'5 7.1
2018-May-16 03:48N 30°03' W 093°44'2 6.6
2018-May-16 03:28N 30°04' W 093°42'3 6.8
2018-May-16 03:00N 30°04' W 093°38'3 6.1
2018-May-16 02:30N 30°04' W 093°35'3 5.8
2018-May-16 02:00N 30°04' W 093°31'3 5.6
2018-May-16 01:30N 30°04' W 093°28'3 5.5
2018-May-16 00:58N 30°04' W 093°25'3 5.6
2018-May-16 00:30N 30°04' W 093°22'3 5.6
2018-May-16 00:01N 30°06' W 093°19'2 4.4
2018-May-15 23:30N 30°05' W 093°17'0 0.8
2018-May-15 23:00N 30°05' W 093°17'1 1.2
2018-May-15 22:30N 30°05' W 093°18'2 3.3
2018-May-15 22:01N 30°05' W 093°20'2 4.2
2018-May-15 21:30N 30°04' W 093°21'2 4.9
2018-May-15 21:00N 30°04' W 093°24'3 5.3
2018-May-15 20:30N 30°04' W 093°27'2 4.1
2018-May-15 20:00N 30°04' W 093°30'3 5.4
2018-May-15 19:30N 30°04' W 093°33'3 5.5
2018-May-15 19:00N 30°04' W 093°36'3 5.4
2018-May-15 18:28N 30°03' W 093°39'2 5.3
2018-May-15 18:00N 30°03' W 093°42'2 4.7
2018-May-15 17:30N 30°02' W 093°44'2 4.9
2018-May-15 17:01N 30°00' W 093°46'3 5.4
2018-May-15 16:30N 29°59' W 093°49'3 5.6
2018-May-15 16:00N 29°57' W 093°52'2 4.0
2018-May-15 15:30N 29°56' W 093°53'0 0.0
2018-May-15 15:00N 29°56' W 093°53'0 0.1
2018-May-15 14:30N 29°56' W 093°53'0 0.0
2018-May-15 14:00N 29°56' W 093°53'0 0.2
2018-May-15 13:30N 29°56' W 093°53'0 0.0
2018-May-15 13:00N 29°56' W 093°53'0 0.1
2018-May-15 12:30N 29°56' W 093°53'0 0.0
2018-May-15 12:00N 29°56' W 093°53'0 0.0
2018-May-15 11:30N 29°56' W 093°53'0 0.0
2018-May-15 11:01N 29°56' W 093°53'0 0.0
2018-May-15 10:30N 29°56' W 093°53'0 0.0
2018-May-15 10:00N 29°56' W 093°53'0 0.0
2018-May-15 09:30N 29°56' W 093°53'0 0.0
2018-May-15 09:00N 29°56' W 093°53'0 0.0
2018-May-15 08:30N 29°56' W 093°53'0 0.0
2018-May-15 08:00N 29°56' W 093°53'0 0.0
2018-May-15 07:30N 29°56' W 093°53'0 0.0
2018-May-15 07:01N 29°56' W 093°53'0 0.0
2018-May-15 06:30N 29°56' W 093°53'0 0.0
2018-May-15 06:01N 29°56' W 093°53'0 0.0
2018-May-15 05:30N 29°56' W 093°53'0 0.0
2018-May-15 05:00N 29°56' W 093°53'0 0.0
2018-May-15 04:30N 29°56' W 093°53'0 0.0
2018-May-15 04:01N 29°56' W 093°53'0 0.0
2018-May-15 03:31N 29°56' W 093°53'0 0.0
2018-May-15 03:00N 29°56' W 093°53'0 0.0
2018-May-15 02:30N 29°56' W 093°53'0 0.0
2018-May-15 02:00N 29°56' W 093°53'0 0.0
2018-May-15 01:31N 29°56' W 093°53'0 0.0
2018-May-15 01:00N 29°56' W 093°53'0 0.0
2018-May-15 00:30N 29°56' W 093°53'0 0.0
2018-May-15 00:00N 29°56' W 093°53'0 0.0
2018-May-14 23:30N 29°56' W 093°53'0 0.0
2018-May-14 23:01N 29°56' W 093°53'0 0.0
2018-May-14 22:30N 29°56' W 093°53'0 0.0
2018-May-14 22:01N 29°56' W 093°53'0 0.0
2018-May-14 21:31N 29°56' W 093°53'0 0.0
2018-May-14 21:01N 29°56' W 093°53'0 0.0
2018-May-14 20:31N 29°56' W 093°53'0 0.0
2018-May-14 20:01N 29°56' W 093°53'0 0.0
2018-May-14 19:30N 29°56' W 093°53'0 0.0
2018-May-14 19:00N 29°56' W 093°53'0 0.0
2018-May-14 18:30N 29°56' W 093°53'3 5.8
2018-May-14 18:01N 29°53' W 093°55'0 0.2
2018-May-14 17:30N 29°53' W 093°55'3 5.7
2018-May-14 17:01N 29°56' W 093°53'0 0.0
2018-May-14 16:30N 29°56' W 093°53'0 0.0
2018-May-14 16:01N 29°56' W 093°53'0 0.0
2018-May-14 15:30N 29°56' W 093°53'0 0.0
2018-May-14 15:00N 29°56' W 093°53'0 0.0
2018-May-14 14:30N 29°56' W 093°53'0 0.0
2018-May-14 14:00N 29°56' W 093°53'0 0.0
2018-May-14 13:30N 29°56' W 093°53'0 0.0
2018-May-14 13:01N 29°56' W 093°53'2 3.7
2018-May-14 12:30N 29°54' W 093°54'1 1.3
2018-May-14 12:00N 29°54' W 093°54'2 4.7
2018-May-14 11:30N 29°55' W 093°53'0 0.4
2018-May-14 11:01N 29°56' W 093°53'0 0.0
2018-May-14 10:30N 29°56' W 093°53'0 0.0
2018-May-14 10:00N 29°56' W 093°53'0 0.0
2018-May-14 09:30N 29°56' W 093°53'0 0.0
2018-May-14 09:00N 29°56' W 093°53'0 0.0
2018-May-14 08:30N 29°56' W 093°53'0 0.0
2018-May-14 08:00N 29°56' W 093°53'0 0.0
2018-May-14 07:30N 29°56' W 093°53'0 0.0
2018-May-14 07:00N 29°56' W 093°53'0 0.0
2018-May-14 06:30N 29°56' W 093°53'0 0.0
2018-May-14 06:01N 29°56' W 093°53'0 0.0
2018-May-14 05:30N 29°56' W 093°53'0 0.0
2018-May-14 05:01N 29°56' W 093°53'0 0.0
2018-May-14 04:31N 29°56' W 093°53'0 0.0
2018-May-14 04:01N 29°56' W 093°53'0 0.0
2018-May-14 03:30N 29°56' W 093°53'0 0.0
2018-May-14 03:01N 29°56' W 093°53'0 0.0
2018-May-14 02:30N 29°56' W 093°53'0 0.0
2018-May-14 02:01N 29°56' W 093°53'0 0.0
2018-May-14 01:31N 29°56' W 093°53'0 0.0
2018-May-14 01:00N 29°56' W 093°53'0 0.0
2018-May-14 00:31N 29°56' W 093°53'0 0.0
2018-May-14 00:01N 29°56' W 093°53'0 0.0
2018-May-13 23:31N 29°56' W 093°53'0 0.0
2018-May-13 23:01N 29°56' W 093°53'0 0.0
2018-May-13 22:30N 29°56' W 093°53'0 0.0
2018-May-13 22:00N 29°56' W 093°53'0 0.0
2018-May-13 21:30N 29°56' W 093°53'0 0.0
2018-May-13 21:01N 29°56' W 093°53'0 0.0
2018-May-13 20:31N 29°56' W 093°53'0 0.0
2018-May-13 20:01N 29°56' W 093°53'0 0.0
2018-May-13 19:30N 29°56' W 093°53'0 0.0
2018-May-13 19:01N 29°56' W 093°53'0 0.0
2018-May-13 18:30N 29°56' W 093°53'0 0.0
2018-May-13 18:01N 29°56' W 093°53'0 0.0
2018-May-13 17:31N 29°56' W 093°53'0 0.0
2018-May-13 17:00N 29°56' W 093°53'0 0.0
2018-May-13 16:31N 29°56' W 093°53'0 0.0
2018-May-13 16:01N 29°56' W 093°53'0 0.0
2018-May-13 15:28N 29°56' W 093°53'0 0.0
2018-May-13 15:01N 29°56' W 093°53'0 0.0
2018-May-13 14:30N 29°56' W 093°53'0 0.0
2018-May-13 14:00N 29°56' W 093°53'0 0.0
2018-May-13 13:31N 29°56' W 093°53'0 0.0
2018-May-13 13:00N 29°56' W 093°53'0 0.0
2018-May-13 12:31N 29°56' W 093°53'0 0.0
2018-May-13 12:00N 29°56' W 093°53'0 0.0
2018-May-13 11:31N 29°56' W 093°53'0 0.0
2018-May-13 11:00N 29°56' W 093°53'0 0.0
2018-May-13 10:30N 29°56' W 093°53'0 0.0
2018-May-13 10:01N 29°56' W 093°53'0 0.0
2018-May-13 09:31N 29°56' W 093°53'0 0.0
2018-May-13 09:01N 29°56' W 093°53'0 0.0
2018-May-13 08:31N 29°56' W 093°53'0 0.0
2018-May-13 08:00N 29°56' W 093°53'0 0.0
2018-May-13 07:30N 29°56' W 093°53'0 0.0
2018-May-13 07:00N 29°56' W 093°53'0 0.0
2018-May-13 06:30N 29°56' W 093°53'0 0.0
2018-May-13 06:00N 29°56' W 093°53'0 0.0
2018-May-13 05:30N 29°56' W 093°53'0 0.0
2018-May-13 05:00N 29°56' W 093°53'0 0.0
2018-May-13 04:30N 29°56' W 093°53'0 0.0
2018-May-13 04:00N 29°56' W 093°53'0 0.0
2018-May-13 03:30N 29°56' W 093°53'0 0.0
2018-May-13 03:00N 29°56' W 093°53'0 0.0
2018-May-13 02:30N 29°56' W 093°53'0 0.0
2018-May-13 02:00N 29°56' W 093°53'0 0.0
2018-May-13 01:30N 29°56' W 093°53'0 0.0
2018-May-13 01:00N 29°56' W 093°53'0 0.0
2018-May-13 00:30N 29°56' W 093°53'0 0.0
2018-May-13 00:00N 29°56' W 093°53'0 0.0
2018-May-12 23:30N 29°56' W 093°53'0 0.0
2018-May-12 23:00N 29°56' W 093°53'0 0.0
2018-May-12 22:30N 29°56' W 093°53'0 0.0
2018-May-12 22:00N 29°56' W 093°53'0 0.0
2018-May-12 21:30N 29°56' W 093°53'0 0.0
2018-May-12 21:00N 29°56' W 093°53'0 0.0
2018-May-12 20:30N 29°56' W 093°53'0 0.0
2018-May-12 20:00N 29°56' W 093°53'0 0.0
2018-May-12 19:30N 29°56' W 093°53'0 0.0
2018-May-12 19:00N 29°56' W 093°53'0 0.0
2018-May-12 18:30N 29°56' W 093°53'0 0.0
2018-May-12 18:00N 29°56' W 093°53'1 1.9
2018-May-12 17:30N 29°55' W 093°53'2 4.2
2018-May-12 17:00N 29°53' W 093°55'2 4.1
2018-May-12 16:30N 29°55' W 093°53'1 2.0
2018-May-12 16:00N 29°56' W 093°53'0 0.0
2018-May-12 15:30N 29°56' W 093°53'0 0.0
2018-May-12 15:00N 29°56' W 093°53'0 0.0
2018-May-12 14:30N 29°56' W 093°53'0 0.0
2018-May-12 14:00N 29°56' W 093°53'0 0.0
2018-May-12 13:30N 29°56' W 093°53'0 0.0
2018-May-12 13:00N 29°56' W 093°53'0 0.0
2018-May-12 12:30N 29°56' W 093°53'0 0.0
2018-May-12 12:00N 29°56' W 093°53'0 0.0
2018-May-12 11:30N 29°56' W 093°53'0 0.0
2018-May-12 11:00N 29°56' W 093°53'0 0.0
2018-May-12 10:30N 29°56' W 093°53'0 0.0
2018-May-12 10:00N 29°56' W 093°53'0 0.0
2018-May-12 09:30N 29°56' W 093°53'0 0.0
2018-May-12 09:00N 29°56' W 093°53'0 0.0
2018-May-12 08:30N 29°56' W 093°53'0 0.0
2018-May-12 08:00N 29°56' W 093°53'0 0.0
2018-May-12 07:30N 29°56' W 093°53'0 0.0
2018-May-12 07:00N 29°56' W 093°53'0 0.0
2018-May-12 06:30N 29°56' W 093°53'0 0.1
2018-May-12 06:00N 29°56' W 093°53'0 0.0
2018-May-12 05:30N 29°56' W 093°53'0 0.0
2018-May-12 05:00N 29°56' W 093°53'0 0.0
2018-May-12 04:30N 29°56' W 093°53'0 0.0
2018-May-12 04:00N 29°56' W 093°53'0 0.0
2018-May-12 03:30N 29°56' W 093°53'0 0.0
2018-May-12 03:00N 29°56' W 093°53'0 0.0
2018-May-12 02:30N 29°56' W 093°53'0 0.0
2018-May-12 02:00N 29°56' W 093°53'0 0.0
2018-May-12 01:30N 29°56' W 093°53'0 0.0
2018-May-12 01:00N 29°56' W 093°53'0 0.0
2018-May-12 00:30N 29°56' W 093°53'0 0.0
2018-May-12 00:00N 29°56' W 093°53'0 0.0
2018-May-11 23:30N 29°56' W 093°53'0 0.0
2018-May-11 23:00N 29°56' W 093°53'0 0.0
2018-May-11 22:30N 29°56' W 093°53'2 4.2
2018-May-11 22:00N 29°54' W 093°54'1 2.0
2018-May-11 21:30N 29°53' W 093°55'0 0.0
2018-May-11 21:00N 29°53' W 093°55'0 0.0
2018-May-11 20:30N 29°53' W 093°55'0 0.0
2018-May-11 20:00N 29°53' W 093°55'0 0.0
2018-May-11 19:30N 29°53' W 093°55'2 4.0
2018-May-11 19:00N 29°55' W 093°53'1 2.1
2018-May-11 18:30N 29°56' W 093°53'0 0.0
2018-May-11 18:00N 29°56' W 093°53'0 0.0
2018-May-11 17:30N 29°56' W 093°53'0 0.0
2018-May-11 17:00N 29°56' W 093°53'0 0.0
2018-May-11 16:30N 29°56' W 093°53'0 0.2
2018-May-11 16:00N 29°56' W 093°53'0 0.2
2018-May-11 15:30N 29°56' W 093°53'0 0.0
2018-May-11 15:00N 29°56' W 093°53'0 0.0
2018-May-11 14:30N 29°56' W 093°53'0 0.0
2018-May-11 14:00N 29°56' W 093°53'0 0.0
2018-May-11 13:30N 29°56' W 093°53'0 0.0
2018-May-11 13:00N 29°56' W 093°53'0 0.0
2018-May-11 12:30N 29°56' W 093°53'0 0.0
2018-May-11 12:00N 29°56' W 093°53'0 0.0
2018-May-11 11:30N 29°56' W 093°53'0 0.0
2018-May-11 11:00N 29°56' W 093°53'0 0.0
2018-May-11 10:30N 29°56' W 093°53'0 0.0
2018-May-11 10:00N 29°56' W 093°53'0 0.0
2018-May-11 09:30N 29°56' W 093°53'0 0.0
2018-May-11 09:00N 29°56' W 093°53'0 0.0
2018-May-11 08:30N 29°56' W 093°53'0 0.0
2018-May-11 08:00N 29°56' W 093°53'0 0.0
2018-May-11 07:30N 29°56' W 093°53'0 0.0
2018-May-11 07:00N 29°56' W 093°53'0 0.0
2018-May-11 06:30N 29°56' W 093°53'0 0.0
2018-May-11 06:00N 29°56' W 093°53'0 0.0
2018-May-11 05:30N 29°56' W 093°53'0 0.0
2018-May-11 05:00N 29°56' W 093°53'0 0.0
2018-May-11 04:30N 29°56' W 093°53'0 0.0
2018-May-11 04:00N 29°56' W 093°53'0 0.0
2018-May-11 03:30N 29°56' W 093°53'0 0.0
2018-May-11 03:00N 29°56' W 093°53'0 0.0
2018-May-11 02:30N 29°56' W 093°53'0 0.0
2018-May-11 02:00N 29°56' W 093°53'0 0.0
2018-May-11 01:30N 29°56' W 093°53'0 0.0
2018-May-11 01:00N 29°56' W 093°53'0 0.0
2018-May-11 00:30N 29°56' W 093°53'0 0.0
2018-May-11 00:00N 29°56' W 093°53'0 0.0
2018-May-10 23:30N 29°56' W 093°53'0 0.0
2018-May-10 23:00N 29°56' W 093°53'0 0.0
2018-May-10 22:30N 29°56' W 093°53'0 0.0
2018-May-10 22:00N 29°56' W 093°53'0 0.0
2018-May-10 21:30N 29°56' W 093°53'0 0.0
2018-May-10 21:00N 29°56' W 093°53'0 0.0
2018-May-10 20:30N 29°56' W 093°53'0 0.0
2018-May-10 20:00N 29°56' W 093°53'0 0.0
2018-May-10 19:30N 29°56' W 093°53'0 0.0
2018-May-10 19:00N 29°56' W 093°53'0 0.0
2018-May-10 18:30N 29°56' W 093°53'2 3.0
2018-May-10 18:00N 29°54' W 093°54'2 3.1
2018-May-10 17:30N 29°53' W 093°55'0 0.0
2018-May-10 17:00N 29°53' W 093°55'0 0.2
2018-May-10 16:30N 29°53' W 093°55'3 6.1
2018-May-10 16:00N 29°56' W 093°53'0 0.1
2018-May-10 15:30N 29°56' W 093°53'0 0.0
2018-May-10 15:00N 29°56' W 093°53'0 0.0
2018-May-10 14:30N 29°56' W 093°53'0 0.0
2018-May-10 14:00N 29°56' W 093°53'0 0.0
2018-May-10 13:30N 29°56' W 093°53'0 0.0
2018-May-10 13:00N 29°56' W 093°53'0 0.0
2018-May-10 12:30N 29°56' W 093°53'0 0.0
2018-May-10 12:00N 29°56' W 093°53'0 0.0
2018-May-10 11:30N 29°56' W 093°53'0 0.0
2018-May-10 11:00N 29°56' W 093°53'0 0.0
2018-May-10 10:30N 29°56' W 093°53'0 0.0
2018-May-10 10:00N 29°56' W 093°53'0 0.0
2018-May-10 09:30N 29°56' W 093°53'0 0.0
2018-May-10 09:00N 29°56' W 093°53'0 0.0
2018-May-10 08:30N 29°56' W 093°53'0 0.0
2018-May-10 08:01N 29°56' W 093°53'0 0.0
2018-May-10 07:30N 29°56' W 093°53'0 0.0
2018-May-10 07:01N 29°56' W 093°53'0 0.0
2018-May-10 06:30N 29°56' W 093°53'0 0.0
2018-May-10 06:00N 29°56' W 093°53'0 0.0
2018-May-10 05:30N 29°56' W 093°53'0 0.0
2018-May-10 05:01N 29°56' W 093°53'0 0.0
2018-May-10 04:31N 29°56' W 093°53'0 0.0
2018-May-10 04:00N 29°56' W 093°53'0 0.0
2018-May-10 03:31N 29°56' W 093°53'0 0.0
2018-May-10 02:59N 29°56' W 093°53'0 0.0
2018-May-10 02:31N 29°56' W 093°53'0 0.0
2018-May-10 02:00N 29°56' W 093°53'0 0.0
2018-May-10 01:30N 29°56' W 093°53'0 0.0
2018-May-10 01:00N 29°56' W 093°53'0 0.0
2018-May-10 00:31N 29°56' W 093°53'0 0.0
2018-May-10 00:00N 29°56' W 093°53'0 0.0
2018-May-09 23:30N 29°56' W 093°53'0 0.0
2018-May-09 23:00N 29°56' W 093°53'0 0.0
2018-May-09 22:30N 29°56' W 093°53'0 0.0
2018-May-09 22:01N 29°56' W 093°53'0 0.0
2018-May-09 21:30N 29°56' W 093°53'0 0.0
2018-May-09 21:00N 29°56' W 093°53'0 0.0
2018-May-09 20:30N 29°56' W 093°53'0 0.0
2018-May-09 20:00N 29°56' W 093°53'0 0.0
2018-May-09 19:31N 29°56' W 093°53'0 0.0
2018-May-09 19:00N 29°56' W 093°53'0 0.0
2018-May-09 18:30N 29°56' W 093°53'0 0.0
2018-May-09 18:00N 29°56' W 093°53'0 0.0
2018-May-09 17:30N 29°56' W 093°53'0 0.0
2018-May-09 17:01N 29°56' W 093°53'1 2.4
2018-May-09 16:30N 29°57' W 093°52'3 5.1
2018-May-09 16:00N 29°59' W 093°50'3 5.5
2018-May-09 15:30N 29°60' W 093°47'3 5.5
2018-May-09 15:00N 30°01' W 093°44'3 5.1
2018-May-09 14:30N 30°03' W 093°43'2 4.9
2018-May-09 14:01N 30°04' W 093°40'2 4.7
2018-May-09 13:30N 30°04' W 093°37'2 4.1
2018-May-09 13:01N 30°04' W 093°35'2 3.7
2018-May-09 12:30N 30°04' W 093°33'2 3.7
2018-May-09 12:00N 30°04' W 093°30'2 3.6
2018-May-09 11:30N 30°04' W 093°28'2 3.7
2018-May-09 11:01N 30°04' W 093°26'2 3.7
2018-May-09 10:30N 30°04' W 093°24'2 3.7
2018-May-09 10:00N 30°04' W 093°22'1 2.7
2018-May-09 09:31N 30°04' W 093°21'2 3.1
2018-May-09 09:00N 30°06' W 093°19'1 2.2
2018-May-09 08:31N 30°06' W 093°18'0 0.1
2018-May-09 08:01N 30°06' W 093°18'0 0.4
2018-May-09 07:31N 30°06' W 093°18'1 2.6
2018-May-09 07:00N 30°05' W 093°17'1 2.9
2018-May-09 06:31N 30°04' W 093°16'0 0.1
2018-May-09 06:01N 30°04' W 093°16'0 0.0
2018-May-09 05:30N 30°04' W 093°16'0 0.0
2018-May-09 05:01N 30°04' W 093°16'0 0.0
2018-May-09 04:30N 30°04' W 093°16'0 0.0
2018-May-09 04:01N 30°04' W 093°16'0 0.0
2018-May-09 03:30N 30°04' W 093°16'0 0.0
2018-May-09 03:00N 30°04' W 093°16'0 0.0
2018-May-09 02:29N 30°04' W 093°16'0 0.0
2018-May-09 02:01N 30°04' W 093°16'0 0.0
2018-May-09 01:31N 30°04' W 093°16'0 0.0
2018-May-09 01:00N 30°04' W 093°16'0 0.0
2018-May-09 00:30N 30°04' W 093°16'1 2.3
2018-May-09 00:01N 30°03' W 093°16'2 3.5
2018-May-08 23:31N 30°01' W 093°14'2 3.4
2018-May-08 23:00N 29°60' W 093°13'1 1.3
2018-May-08 22:27N 29°59' W 093°13'0 0.0
2018-May-08 22:00N 29°59' W 093°13'0 0.0
2018-May-08 21:31N 29°59' W 093°13'0 0.2
2018-May-08 21:00N 29°59' W 093°13'1 2.6
2018-May-08 20:30N 29°58' W 093°12'2 3.9
2018-May-08 20:01N 29°57' W 093°10'20 3.6
2018-May-08 14:32N 29°58' W 092°47'0 4.6
2018-May-08 14:31N 29°58' W 092°47'2 3.7
2018-May-08 14:00N 29°58' W 092°45'2 3.8
2018-May-08 13:31N 29°57' W 092°43'2 4.2
2018-May-08 12:59N 29°56' W 092°41'2 3.1
2018-May-08 12:30N 29°56' W 092°39'2 4.2
2018-May-08 12:00N 29°55' W 092°37'  

Dump ship's entire track history